createdAt,value
2018-08-12T00:01:59.090Z,15.00
2018-08-12T00:04:27.454Z,15.00
2018-08-12T00:06:56.557Z,14.90
2018-08-12T00:09:24.946Z,14.90
2018-08-12T00:11:53.277Z,14.90
2018-08-12T00:14:21.616Z,14.90
2018-08-12T00:16:49.971Z,14.80
2018-08-12T00:19:19.375Z,14.80
2018-08-12T00:21:47.713Z,14.70
2018-08-12T00:24:16.195Z,14.80
2018-08-12T00:26:44.517Z,14.80
2018-08-12T00:29:13.639Z,14.70
2018-08-12T00:31:42.024Z,14.70
2018-08-12T00:34:10.369Z,14.70
2018-08-12T00:36:39.489Z,14.70
2018-08-12T00:39:07.987Z,14.70
2018-08-12T00:41:36.308Z,14.70
2018-08-12T00:44:04.739Z,14.70
2018-08-12T00:46:33.093Z,14.60
2018-08-12T00:49:01.429Z,14.60
2018-08-12T00:51:29.769Z,14.60
2018-08-12T00:53:58.085Z,14.60
2018-08-12T00:56:26.532Z,14.60
2018-08-12T00:58:54.871Z,14.50
2018-08-12T01:01:23.208Z,14.50
2018-08-12T01:03:51.556Z,14.50
2018-08-12T01:06:20.030Z,14.50
2018-08-12T01:08:49.240Z,14.40
2018-08-12T01:11:17.589Z,14.40
2018-08-12T01:13:46.686Z,14.40
2018-08-12T01:16:15.104Z,14.40
2018-08-12T01:18:43.471Z,14.40
2018-08-12T01:21:11.821Z,14.30
2018-08-12T01:23:40.207Z,14.30
2018-08-12T01:26:08.546Z,14.30
2018-08-12T01:28:36.987Z,14.30
2018-08-12T01:31:05.309Z,14.30
2018-08-12T01:33:33.637Z,14.30
2018-08-12T01:36:02.098Z,14.30
2018-08-12T01:38:30.426Z,14.20
2018-08-12T01:40:58.855Z,14.20
2018-08-12T01:43:27.955Z,14.20
2018-08-12T01:45:57.066Z,14.10
2018-08-12T01:48:25.453Z,14.10
2018-08-12T01:50:53.805Z,14.10
2018-08-12T01:53:22.890Z,14.10
2018-08-12T01:55:51.301Z,14.10
2018-08-12T01:58:19.659Z,14.10
2018-08-12T02:00:48.792Z,14.00
2018-08-12T02:03:17.116Z,14.00
2018-08-12T02:05:45.473Z,14.00
2018-08-12T02:08:13.917Z,14.00
2018-08-12T02:10:42.259Z,14.00
2018-08-12T02:13:10.593Z,14.00
2018-08-12T02:15:39.096Z,14.00
2018-08-12T02:18:07.620Z,14.00
2018-08-12T02:20:36.752Z,13.90
2018-08-12T02:23:05.302Z,14.00
2018-08-12T02:25:33.609Z,14.00
2018-08-12T02:28:02.018Z,14.00
2018-08-12T02:30:30.348Z,13.90
2018-08-12T02:32:58.747Z,14.00
2018-08-12T02:35:27.150Z,14.00
2018-08-12T02:37:55.482Z,13.90
2018-08-12T02:40:23.840Z,14.00
2018-08-12T02:42:52.342Z,14.00
2018-08-12T02:45:21.477Z,13.90
2018-08-12T02:47:49.810Z,13.90
2018-08-12T02:50:18.944Z,13.90
2018-08-12T02:52:47.316Z,13.90
2018-08-12T02:55:15.673Z,13.90
2018-08-12T02:57:44.064Z,13.90
2018-08-12T03:00:12.426Z,13.80
2018-08-12T03:02:41.549Z,13.70
2018-08-12T03:05:09.972Z,13.80
2018-08-12T03:07:38.233Z,13.80
2018-08-12T03:10:06.589Z,13.70
2018-08-12T03:12:34.964Z,13.70
2018-08-12T03:15:03.636Z,13.70
2018-08-12T03:17:31.971Z,13.70
2018-08-12T03:20:00.331Z,13.70
2018-08-12T03:22:29.316Z,13.70
2018-08-12T03:24:57.587Z,13.70
2018-08-12T03:27:25.924Z,13.60
2018-08-12T03:29:54.355Z,13.60
2018-08-12T03:32:22.694Z,13.60
2018-08-12T03:34:52.304Z,13.50
2018-08-12T03:37:21.625Z,13.50
2018-08-12T03:39:50.004Z,13.50
2018-08-12T03:42:18.326Z,13.50
2018-08-12T03:44:46.682Z,13.50
2018-08-12T03:47:15.033Z,13.40
2018-08-12T03:49:43.386Z,13.40
2018-08-12T03:52:12.514Z,13.40
2018-08-12T03:54:40.910Z,13.30
2018-08-12T03:57:09.265Z,13.30
2018-08-12T03:59:37.592Z,13.30
2018-08-12T04:02:05.934Z,13.30
2018-08-12T04:04:34.268Z,13.20
2018-08-12T04:07:02.619Z,13.20
2018-08-12T04:09:30.934Z,13.30
2018-08-12T04:11:59.314Z,13.30
2018-08-12T04:14:27.662Z,13.20
2018-08-12T04:16:56.019Z,13.30
2018-08-12T04:19:24.362Z,13.30
2018-08-12T04:21:52.767Z,13.30
2018-08-12T04:24:21.090Z,13.30
2018-08-12T04:26:49.523Z,13.30
2018-08-12T04:29:17.906Z,13.30
2018-08-12T04:31:46.259Z,13.30
2018-08-12T04:34:15.338Z,13.40
2018-08-12T04:36:43.692Z,13.40
2018-08-12T04:39:12.019Z,13.40
2018-08-12T04:41:41.090Z,13.50
2018-08-12T04:44:09.482Z,13.40
2018-08-12T04:46:38.622Z,13.60
2018-08-12T04:49:06.955Z,13.50
2018-08-12T04:51:36.062Z,13.60
2018-08-12T04:54:05.172Z,13.70
2018-08-12T04:56:33.557Z,13.70
2018-08-12T04:59:01.902Z,13.70
2018-08-12T05:01:30.998Z,13.80
2018-08-12T05:04:00.124Z,13.80
2018-08-12T05:06:28.552Z,13.80
2018-08-12T05:08:56.972Z,13.90
2018-08-12T05:11:26.074Z,14.00
2018-08-12T05:13:54.453Z,14.00
2018-08-12T05:16:22.756Z,14.10
2018-08-12T05:18:51.152Z,14.10
2018-08-12T05:21:19.530Z,14.20
2018-08-12T05:23:47.946Z,14.30
2018-08-12T05:26:17.070Z,14.50
2018-08-12T05:28:45.404Z,14.50
2018-08-12T05:31:13.766Z,14.50
2018-08-12T05:33:42.085Z,14.60
2018-08-12T05:36:10.459Z,14.70
2018-08-12T05:38:38.754Z,14.80
2018-08-12T05:41:07.155Z,14.80
2018-08-12T05:43:35.582Z,14.90
2018-08-12T05:46:03.921Z,14.90
2018-08-12T05:48:32.240Z,15.00
2018-08-12T05:51:00.588Z,15.00
2018-08-12T05:53:28.872Z,15.10
2018-08-12T05:55:57.207Z,15.10
2018-08-12T05:58:25.544Z,15.10
2018-08-12T06:00:53.868Z,15.20
2018-08-12T06:03:22.187Z,15.20
2018-08-12T06:05:50.590Z,15.20
2018-08-12T06:08:18.952Z,15.20
2018-08-12T06:10:47.303Z,15.30
2018-08-12T06:13:15.809Z,15.30
2018-08-12T06:15:44.153Z,15.40
2018-08-12T06:18:12.485Z,15.40
2018-08-12T06:20:40.862Z,15.40
2018-08-12T06:23:09.214Z,15.40
2018-08-12T06:25:37.575Z,15.40
2018-08-12T06:28:06.638Z,15.50
2018-08-12T06:30:35.742Z,15.60
2018-08-12T06:33:04.837Z,15.70
2018-08-12T06:35:33.981Z,15.70
2018-08-12T06:38:02.352Z,15.70
2018-08-12T06:40:30.690Z,15.80
2018-08-12T06:42:59.807Z,15.90
2018-08-12T06:45:28.149Z,15.90
2018-08-12T06:47:57.220Z,16.00
2018-08-12T06:50:25.560Z,16.10
2018-08-12T06:52:54.245Z,16.20
2018-08-12T06:55:22.600Z,16.30
2018-08-12T06:57:51.691Z,16.60
2018-08-12T07:00:20.194Z,16.60
2018-08-12T07:02:49.293Z,16.90
2018-08-12T07:05:19.249Z,17.10
2018-08-12T07:07:47.819Z,17.10
2018-08-12T07:10:16.128Z,17.30
2018-08-12T07:12:44.990Z,17.30
2018-08-12T07:15:13.321Z,17.50
2018-08-12T07:17:41.651Z,17.60
2018-08-12T07:20:10.002Z,17.80
2018-08-12T07:22:38.386Z,17.80
2018-08-12T07:25:07.619Z,17.90
2018-08-12T07:27:35.955Z,17.90
2018-08-12T07:30:04.299Z,17.90
2018-08-12T07:32:32.640Z,17.90
2018-08-12T07:35:00.989Z,18.00
2018-08-12T07:37:29.322Z,18.00
2018-08-12T07:39:57.863Z,18.20
2018-08-12T07:42:26.187Z,18.40
2018-08-12T07:44:54.545Z,18.60
2018-08-12T07:47:22.850Z,18.80
2018-08-12T07:49:51.303Z,19.00
2018-08-12T07:52:19.775Z,19.20
2018-08-12T07:54:48.115Z,19.30
2018-08-12T07:57:17.190Z,19.50
2018-08-12T07:59:45.598Z,19.50
2018-08-12T08:02:14.688Z,19.60
2018-08-12T08:04:43.807Z,19.60
2018-08-12T08:07:12.134Z,19.60
2018-08-12T08:09:40.475Z,19.70
2018-08-12T08:12:08.924Z,19.80
2018-08-12T08:14:38.262Z,20.00
2018-08-12T08:17:06.625Z,20.10
2018-08-12T08:19:34.957Z,20.20
2018-08-12T08:22:03.330Z,20.30
2018-08-12T08:24:31.705Z,20.50
2018-08-12T08:27:00.248Z,20.60
2018-08-12T08:29:28.630Z,20.70
2018-08-12T08:31:57.197Z,20.70
2018-08-12T08:34:25.488Z,20.80
2018-08-12T08:36:53.843Z,20.80
2018-08-12T08:39:22.932Z,21.00
2018-08-12T08:41:52.049Z,21.30
2018-08-12T08:44:20.415Z,21.30
2018-08-12T08:46:49.507Z,21.50
2018-08-12T08:49:18.749Z,21.50
2018-08-12T08:51:47.107Z,21.50
2018-08-12T08:54:15.455Z,21.50
2018-08-12T08:56:44.576Z,21.60
2018-08-12T08:59:12.928Z,21.60
2018-08-12T09:01:41.249Z,21.60
2018-08-12T09:04:09.607Z,21.60
2018-08-12T09:06:37.938Z,21.80
2018-08-12T09:09:06.706Z,22.00
2018-08-12T09:11:35.101Z,22.20
2018-08-12T09:14:05.342Z,22.40
2018-08-12T09:16:33.670Z,22.50
2018-08-12T09:19:02.006Z,22.60
2018-08-12T09:21:30.420Z,22.70
2018-08-12T09:23:58.856Z,22.70
2018-08-12T09:26:28.309Z,22.50
2018-08-12T09:28:57.394Z,22.30
2018-08-12T09:31:25.969Z,22.30
2018-08-12T09:33:55.095Z,22.40
2018-08-12T09:36:23.450Z,22.40
2018-08-12T09:38:51.883Z,22.50
2018-08-12T09:41:20.340Z,22.70
2018-08-12T09:43:48.669Z,23.00
2018-08-12T09:46:17.830Z,23.50
2018-08-12T09:48:46.238Z,23.50
2018-08-12T09:51:14.598Z,23.90
2018-08-12T09:53:42.922Z,24.20
2018-08-12T09:56:11.251Z,24.60
2018-08-12T09:58:39.587Z,25.10
2018-08-12T10:01:07.937Z,25.30
2018-08-12T10:03:37.055Z,26.00
2018-08-12T10:06:05.477Z,26.00
2018-08-12T10:08:34.747Z,26.30
2018-08-12T10:11:03.117Z,26.30
2018-08-12T10:13:31.714Z,26.80
2018-08-12T10:16:00.059Z,27.00
2018-08-12T10:18:28.400Z,27.10
2018-08-12T10:20:56.728Z,27.00
2018-08-12T10:23:25.107Z,26.90
2018-08-12T10:25:54.204Z,26.80
2018-08-12T10:28:23.334Z,26.80
2018-08-12T10:30:51.687Z,26.80
2018-08-12T10:33:20.032Z,26.50
2018-08-12T10:35:48.359Z,26.70
2018-08-12T10:38:16.722Z,26.90
2018-08-12T10:40:45.858Z,27.60
2018-08-12T10:43:14.199Z,27.50
2018-08-12T10:45:42.567Z,27.80
2018-08-12T10:48:11.670Z,28.40
2018-08-12T10:50:40.841Z,28.10
2018-08-12T10:53:09.340Z,28.10
2018-08-12T10:55:38.707Z,28.70
2018-08-12T10:58:07.029Z,28.70
2018-08-12T11:00:36.140Z,28.30
2018-08-12T11:03:04.510Z,28.30
2018-08-12T11:05:33.610Z,29.40
2018-08-12T11:08:01.949Z,29.30
2018-08-12T11:10:30.316Z,29.70
2018-08-12T11:12:58.629Z,30.00
2018-08-12T11:15:27.741Z,30.30
2018-08-12T11:17:56.837Z,30.20
2018-08-12T11:20:25.240Z,30.20
2018-08-12T11:22:53.683Z,30.10
2018-08-12T11:25:22.774Z,29.90
2018-08-12T11:27:51.889Z,29.70
2018-08-12T11:30:20.255Z,29.60
2018-08-12T11:32:49.378Z,28.80
2018-08-12T11:35:17.703Z,28.80
2018-08-12T11:37:46.063Z,28.50
2018-08-12T11:40:14.387Z,28.70
2018-08-12T11:42:43.543Z,28.80
2018-08-12T11:45:11.922Z,28.70
2018-08-12T11:47:40.397Z,28.60
2018-08-12T11:50:08.734Z,28.70
2018-08-12T11:52:37.132Z,29.10
2018-08-12T11:55:05.467Z,29.70
2018-08-12T11:57:34.574Z,30.60
2018-08-12T12:00:03.717Z,30.70
2018-08-12T12:02:32.064Z,30.60
2018-08-12T12:05:00.425Z,30.80
2018-08-12T12:07:29.606Z,31.10
2018-08-12T12:09:57.960Z,31.00
2018-08-12T12:12:26.308Z,30.90
2018-08-12T12:14:54.787Z,31.20
2018-08-12T12:17:23.892Z,32.00
2018-08-12T12:19:52.440Z,31.90
2018-08-12T12:22:20.897Z,32.10
2018-08-12T12:24:49.669Z,32.10
2018-08-12T12:27:18.100Z,32.20
2018-08-12T12:29:47.198Z,32.40
2018-08-12T12:32:17.364Z,32.40
2018-08-12T12:34:45.809Z,32.40
2018-08-12T12:37:14.913Z,32.00
2018-08-12T12:39:43.291Z,31.90
2018-08-12T12:42:11.728Z,32.00
2018-08-12T12:44:40.050Z,31.90
2018-08-12T12:47:08.415Z,31.80
2018-08-12T12:49:37.586Z,32.00
2018-08-12T12:52:05.931Z,31.90
2018-08-12T12:54:34.294Z,32.20
2018-08-12T12:57:02.638Z,32.40
2018-08-12T12:59:31.759Z,32.00
2018-08-12T13:02:00.142Z,31.90
2018-08-12T13:04:28.511Z,31.80
2018-08-12T13:06:56.918Z,31.80
2018-08-12T13:09:25.488Z,31.70
2018-08-12T13:11:53.864Z,32.00
2018-08-12T13:14:23.109Z,32.30
2018-08-12T13:16:51.572Z,32.20
2018-08-12T13:19:21.164Z,32.40
2018-08-12T13:21:49.526Z,32.90
2018-08-12T13:24:18.160Z,32.90
2018-08-12T13:26:46.842Z,32.90
2018-08-12T13:29:15.347Z,33.20
2018-08-12T13:31:43.684Z,33.40
2018-08-12T13:34:12.167Z,33.60
2018-08-12T13:36:40.609Z,33.30
2018-08-12T13:39:09.756Z,32.80
2018-08-12T13:41:38.188Z,32.80
2018-08-12T13:44:07.437Z,33.10
2018-08-12T13:46:35.896Z,33.10
2018-08-12T13:49:04.325Z,33.10
2018-08-12T13:51:32.674Z,33.10
2018-08-12T13:54:01.040Z,33.20
2018-08-12T13:56:29.572Z,33.50
2018-08-12T13:58:58.008Z,33.90
2018-08-12T14:01:26.333Z,33.80
2018-08-12T14:03:54.778Z,34.00
2018-08-12T14:06:23.160Z,34.20
2018-08-12T14:08:52.543Z,34.00
2018-08-12T14:11:20.926Z,34.00
2018-08-12T14:13:49.334Z,33.70
2018-08-12T14:16:17.628Z,33.80
2018-08-12T14:18:46.036Z,34.10
2018-08-12T14:21:14.416Z,34.30
2018-08-12T14:23:42.710Z,33.90
2018-08-12T14:26:11.107Z,33.60
2018-08-12T14:28:39.492Z,33.80
2018-08-12T14:31:07.839Z,33.90
2018-08-12T14:33:36.839Z,34.00
2018-08-12T14:36:06.052Z,33.40
2018-08-12T14:38:34.427Z,33.40
2018-08-12T14:41:02.800Z,33.00
2018-08-12T14:43:31.132Z,32.90
2018-08-12T14:45:59.477Z,33.00
2018-08-12T14:48:27.960Z,32.80
2018-08-12T14:50:56.342Z,33.00
2018-08-12T14:53:24.754Z,33.00
2018-08-12T14:55:53.074Z,32.70
2018-08-12T14:58:21.473Z,32.80
2018-08-12T15:00:49.830Z,32.80
2018-08-12T15:03:18.212Z,32.40
2018-08-12T15:05:46.608Z,32.40
2018-08-12T15:08:14.966Z,32.40
2018-08-12T15:10:43.282Z,32.60
2018-08-12T15:13:11.753Z,32.80
2018-08-12T15:15:40.175Z,32.80
2018-08-12T15:18:09.330Z,33.30
2018-08-12T15:20:37.674Z,33.30
2018-08-12T15:23:06.084Z,33.20
2018-08-12T15:25:34.440Z,32.60
2018-08-12T15:28:02.958Z,32.40
2018-08-12T15:30:31.426Z,32.30
2018-08-12T15:32:59.808Z,32.20
2018-08-12T15:35:28.161Z,32.10
2018-08-12T15:37:57.313Z,32.10
2018-08-12T15:40:25.669Z,31.80
2018-08-12T15:42:53.989Z,31.70
2018-08-12T15:45:22.405Z,31.80
2018-08-12T15:47:50.800Z,31.90
2018-08-12T15:50:19.193Z,32.00
2018-08-12T15:52:47.652Z,32.20
2018-08-12T15:55:15.991Z,32.30
2018-08-12T15:57:45.131Z,32.60
2018-08-12T16:00:13.504Z,32.50
2018-08-12T16:02:41.888Z,32.70
2018-08-12T16:05:10.496Z,32.80
2018-08-12T16:07:38.829Z,32.40
2018-08-12T16:10:07.197Z,32.00
2018-08-12T16:12:35.516Z,31.70
2018-08-12T16:15:03.861Z,31.50
2018-08-12T16:17:33.167Z,31.40
2018-08-12T16:20:02.284Z,31.40
2018-08-12T16:22:30.635Z,31.40
2018-08-12T16:24:59.012Z,31.40
2018-08-12T16:27:27.361Z,31.20
2018-08-12T16:29:55.711Z,31.20
2018-08-12T16:32:24.026Z,31.00
2018-08-12T16:34:53.151Z,31.20
2018-08-12T16:37:21.511Z,31.20
2018-08-12T16:39:49.948Z,31.30
2018-08-12T16:42:19.041Z,31.30
2018-08-12T16:44:47.395Z,31.30
2018-08-12T16:47:15.727Z,31.40
2018-08-12T16:49:44.194Z,31.30
2018-08-12T16:52:12.534Z,30.90
2018-08-12T16:54:41.253Z,31.00
2018-08-12T16:57:09.602Z,31.10
2018-08-12T16:59:37.977Z,30.90
2018-08-12T17:02:06.328Z,30.80
2018-08-12T17:04:35.467Z,30.50
2018-08-12T17:07:03.828Z,30.50
2018-08-12T17:09:32.409Z,30.30
2018-08-12T17:12:00.792Z,30.30
2018-08-12T17:14:29.123Z,30.10
2018-08-12T17:16:57.492Z,30.10
2018-08-12T17:19:25.824Z,29.90
2018-08-12T17:21:54.210Z,29.70
2018-08-12T17:24:22.545Z,29.50
2018-08-12T17:26:50.884Z,29.20
2018-08-12T17:29:19.758Z,29.00
2018-08-12T17:31:48.131Z,28.70
2018-08-12T17:34:16.492Z,28.40
2018-08-12T17:36:45.610Z,28.00
2018-08-12T17:39:13.991Z,27.90
2018-08-12T17:41:42.364Z,27.70
2018-08-12T17:44:10.769Z,27.50
2018-08-12T17:46:39.126Z,27.30
2018-08-12T17:49:07.973Z,27.20
2018-08-12T17:51:36.354Z,27.00
2018-08-12T17:54:04.754Z,26.80
2018-08-12T17:56:34.028Z,26.70
2018-08-12T17:59:02.469Z,26.50
2018-08-12T18:01:30.856Z,26.40
2018-08-12T18:03:59.214Z,26.20
2018-08-12T18:06:27.616Z,26.10
2018-08-12T18:08:55.945Z,26.00
2018-08-12T18:11:25.978Z,25.90
2018-08-12T18:13:54.308Z,25.80
2018-08-12T18:16:22.655Z,25.70
2018-08-12T18:18:51.103Z,25.50
2018-08-12T18:21:20.244Z,25.30
2018-08-12T18:23:48.590Z,25.30
2018-08-12T18:26:17.043Z,25.20
2018-08-12T18:28:45.450Z,25.00
2018-08-12T18:31:13.889Z,25.00
2018-08-12T18:33:43.024Z,24.90
2018-08-12T18:36:12.183Z,24.60
2018-08-12T18:38:40.698Z,24.60
2018-08-12T18:41:09.069Z,24.40
2018-08-12T18:43:37.456Z,24.40
2018-08-12T18:46:06.074Z,24.40
2018-08-12T18:48:35.226Z,24.30
2018-08-12T18:51:03.614Z,24.30
2018-08-12T18:53:31.994Z,24.30
2018-08-12T18:56:00.470Z,24.30
2018-08-12T18:58:28.868Z,24.20
2018-08-12T19:00:57.406Z,24.20
2018-08-12T19:03:25.733Z,24.20
2018-08-12T19:05:54.850Z,24.10
2018-08-12T19:08:23.225Z,24.10
2018-08-12T19:10:52.354Z,24.00
2018-08-12T19:13:20.731Z,23.90
2018-08-12T19:15:49.074Z,24.00
2018-08-12T19:18:18.180Z,23.90
2018-08-12T19:20:46.530Z,23.80
2018-08-12T19:23:14.894Z,23.80
2018-08-12T19:25:43.355Z,23.70
2018-08-12T19:28:11.754Z,23.60
2018-08-12T19:30:40.150Z,23.50
2018-08-12T19:33:08.516Z,23.40
2018-08-12T19:35:36.963Z,23.20
2018-08-12T19:38:05.322Z,23.10
2018-08-12T19:40:33.738Z,23.00
2018-08-12T19:43:02.200Z,22.90
2018-08-12T19:45:30.796Z,22.80
2018-08-12T19:47:59.151Z,22.70
2018-08-12T19:50:27.493Z,22.60
2018-08-12T19:52:55.836Z,22.50
2018-08-12T19:55:24.287Z,22.50
2018-08-12T19:57:52.626Z,22.40
2018-08-12T20:00:20.985Z,22.40
2018-08-12T20:02:49.408Z,22.40
2018-08-12T20:05:18.655Z,22.30
2018-08-12T20:07:47.014Z,22.30
2018-08-12T20:10:15.385Z,22.30
2018-08-12T20:12:43.784Z,22.30
2018-08-12T20:15:12.158Z,22.20
2018-08-12T20:17:40.558Z,22.10
2018-08-12T20:20:08.926Z,22.00
2018-08-12T20:22:37.326Z,22.00
2018-08-12T20:25:05.668Z,21.90
2018-08-12T20:27:34.224Z,21.80
2018-08-12T20:30:03.343Z,21.70
2018-08-12T20:32:32.453Z,21.70
2018-08-12T20:35:00.837Z,21.70
2018-08-12T20:37:29.160Z,21.60
2018-08-12T20:39:58.283Z,21.50
2018-08-12T20:42:26.625Z,21.40
2018-08-12T20:44:54.964Z,21.40
2018-08-12T20:47:23.316Z,21.30
2018-08-12T20:49:52.412Z,21.30
2018-08-12T20:52:20.774Z,21.30
2018-08-12T20:54:49.868Z,21.20
2018-08-12T20:57:18.980Z,21.20
2018-08-12T20:59:48.072Z,21.10
2018-08-12T21:02:17.182Z,21.10
2018-08-12T21:04:45.521Z,21.00
2018-08-12T21:07:13.928Z,21.00
2018-08-12T21:09:43.053Z,20.90
2018-08-12T21:12:11.542Z,20.90
2018-08-12T21:14:39.759Z,20.80
2018-08-12T21:17:08.229Z,20.80
2018-08-12T21:19:36.589Z,20.80
2018-08-12T21:22:04.920Z,20.70
2018-08-12T21:24:34.192Z,20.70
2018-08-12T21:27:02.552Z,20.70
2018-08-12T21:29:30.903Z,20.60
2018-08-12T21:31:59.223Z,20.60
2018-08-12T21:34:27.572Z,20.60
2018-08-12T21:36:55.934Z,20.60
2018-08-12T21:39:24.418Z,20.60
2018-08-12T21:41:53.358Z,20.60
2018-08-12T21:44:21.702Z,20.60
2018-08-12T21:46:50.040Z,20.50
2018-08-12T21:49:19.158Z,20.50
2018-08-12T21:51:47.639Z,20.40
2018-08-12T21:54:16.119Z,20.40
2018-08-12T21:56:44.450Z,20.40
2018-08-12T21:59:12.811Z,20.40
2018-08-12T22:01:41.184Z,20.40
2018-08-12T22:04:09.579Z,20.40
2018-08-12T22:06:38.249Z,20.30
2018-08-12T22:09:06.617Z,20.30
2018-08-12T22:11:35.017Z,20.20
2018-08-12T22:14:03.397Z,20.20
2018-08-12T22:16:32.369Z,20.10
2018-08-12T22:19:00.705Z,20.10
2018-08-12T22:21:29.107Z,20.00
2018-08-12T22:23:57.435Z,20.00
2018-08-12T22:26:25.811Z,20.00
2018-08-12T22:28:54.219Z,19.90
2018-08-12T22:31:22.654Z,19.90
2018-08-12T22:33:51.018Z,19.90
2018-08-12T22:36:19.403Z,19.80
2018-08-12T22:38:47.725Z,19.80
2018-08-12T22:41:16.195Z,19.70
2018-08-12T22:43:44.535Z,19.70
2018-08-12T22:46:13.016Z,19.70
2018-08-12T22:48:41.456Z,19.60
2018-08-12T22:51:09.819Z,19.60
2018-08-12T22:53:38.154Z,19.50
2018-08-12T22:56:06.550Z,19.50
2018-08-12T22:58:34.914Z,19.40
2018-08-12T23:01:03.262Z,19.30
2018-08-12T23:03:32.417Z,19.20
2018-08-12T23:06:00.748Z,19.10
2018-08-12T23:08:29.142Z,19.10
2018-08-12T23:10:57.554Z,19.10
2018-08-12T23:13:25.930Z,19.00
2018-08-12T23:19:00.724Z,18.90
2018-08-12T23:21:29.863Z,18.90
2018-08-12T23:23:58.244Z,18.80
2018-08-12T23:26:26.638Z,18.80
2018-08-12T23:28:55.013Z,18.80
2018-08-12T23:31:23.358Z,18.70
2018-08-12T23:33:51.753Z,18.70
2018-08-12T23:36:20.076Z,18.70
2018-08-12T23:38:48.419Z,18.60
2018-08-12T23:41:16.760Z,18.50
2018-08-12T23:43:45.928Z,18.40
2018-08-12T23:46:14.253Z,18.30
2018-08-12T23:48:42.621Z,18.30
2018-08-12T23:51:11.708Z,18.30
2018-08-12T23:53:40.835Z,18.30
2018-08-12T23:56:09.198Z,18.30
2018-08-12T23:58:37.585Z,18.30
